sensor_id;sensor_type;location;lat;lon;timestamp;P1;durP1;ratioP1;P2;durP2;ratioP2
20322;SDS011;10319;52.206;20.996;2022-09-20T00:00:22;15.40;;;6.07;;
20322;SDS011;10319;52.206;20.996;2022-09-20T00:02:47;16.13;;;6.70;;
20322;SDS011;10319;52.206;20.996;2022-09-20T00:05:12;16.57;;;6.87;;
20322;SDS011;10319;52.206;20.996;2022-09-20T00:07:37;16.27;;;7.37;;
20322;SDS011;10319;52.206;20.996;2022-09-20T00:10:02;17.40;;;7.47;;
20322;SDS011;10319;52.206;20.996;2022-09-20T00:12:28;16.30;;;7.00;;
20322;SDS011;10319;52.206;20.996;2022-09-20T00:14:53;15.27;;;6.07;;
20322;SDS011;10319;52.206;20.996;2022-09-20T00:17:18;18.40;;;7.40;;
20322;SDS011;10319;52.206;20.996;2022-09-20T00:19:43;15.67;;;6.87;;
20322;SDS011;10319;52.206;20.996;2022-09-20T00:22:08;19.00;;;6.60;;
20322;SDS011;10319;52.206;20.996;2022-09-20T00:24:34;16.27;;;6.87;;
20322;SDS011;10319;52.206;20.996;2022-09-20T00:27:00;18.07;;;7.20;;
20322;SDS011;10319;52.206;20.996;2022-09-20T00:29:26;15.77;;;6.30;;
20322;SDS011;10319;52.206;20.996;2022-09-20T00:31:51;16.97;;;6.80;;
20322;SDS011;10319;52.206;20.996;2022-09-20T00:34:16;16.90;;;6.63;;
20322;SDS011;10319;52.206;20.996;2022-09-20T00:37:00;16.53;;;6.93;;
20322;SDS011;10319;52.206;20.996;2022-09-20T00:39:25;16.70;;;7.10;;
20322;SDS011;10319;52.206;20.996;2022-09-20T00:41:51;17.07;;;8.00;;
20322;SDS011;10319;52.206;20.996;2022-09-20T00:47:00;17.17;;;7.60;;
20322;SDS011;10319;52.206;20.996;2022-09-20T00:49:25;18.80;;;7.80;;
20322;SDS011;10319;52.206;20.996;2022-09-20T00:51:55;18.83;;;8.60;;
20322;SDS011;10319;52.206;20.996;2022-09-20T00:54:20;17.47;;;8.20;;
20322;SDS011;10319;52.206;20.996;2022-09-20T00:56:47;18.40;;;8.50;;
20322;SDS011;10319;52.206;20.996;2022-09-20T01:01:44;20.43;;;8.60;;
20322;SDS011;10319;52.206;20.996;2022-09-20T01:04:11;19.47;;;8.57;;
20322;SDS011;10319;52.206;20.996;2022-09-20T01:06:38;17.40;;;7.67;;
20322;SDS011;10319;52.206;20.996;2022-09-20T01:09:04;18.07;;;7.67;;
20322;SDS011;10319;52.206;20.996;2022-09-20T01:11:29;17.50;;;8.10;;
20322;SDS011;10319;52.206;20.996;2022-09-20T01:13:55;17.97;;;8.07;;
20322;SDS011;10319;52.206;20.996;2022-09-20T01:16:20;21.03;;;8.83;;
20322;SDS011;10319;52.206;20.996;2022-09-20T01:18:46;17.67;;;8.07;;
20322;SDS011;10319;52.206;20.996;2022-09-20T01:21:11;17.70;;;8.17;;
20322;SDS011;10319;52.206;20.996;2022-09-20T01:23:59;18.47;;;8.53;;
20322;SDS011;10319;52.206;20.996;2022-09-20T01:29:00;17.83;;;8.23;;
20322;SDS011;10319;52.206;20.996;2022-09-20T01:31:27;19.00;;;8.00;;
20322;SDS011;10319;52.206;20.996;2022-09-20T01:36:24;17.53;;;8.00;;
20322;SDS011;10319;52.206;20.996;2022-09-20T01:39:07;21.03;;;9.13;;
20322;SDS011;10319;52.206;20.996;2022-09-20T01:41:40;18.87;;;8.37;;
20322;SDS011;10319;52.206;20.996;2022-09-20T01:47:04;18.20;;;8.20;;
20322;SDS011;10319;52.206;20.996;2022-09-20T01:49:35;17.83;;;7.87;;
20322;SDS011;10319;52.206;20.996;2022-09-20T01:54:53;18.67;;;8.07;;
20322;SDS011;10319;52.206;20.996;2022-09-20T01:57:34;20.00;;;8.30;;
20322;SDS011;10319;52.206;20.996;2022-09-20T02:37:40;18.67;;;8.00;;
20322;SDS011;10319;52.206;20.996;2022-09-20T02:40:16;19.13;;;8.63;;
20322;SDS011;10319;52.206;20.996;2022-09-20T02:45:34;19.37;;;8.23;;
20322;SDS011;10319;52.206;20.996;2022-09-20T02:48:02;17.87;;;8.00;;
20322;SDS011;10319;52.206;20.996;2022-09-20T02:50:41;21.30;;;8.53;;
20322;SDS011;10319;52.206;20.996;2022-09-20T02:55:42;17.80;;;7.40;;
20322;SDS011;10319;52.206;20.996;2022-09-20T03:00:41;16.83;;;7.90;;
20322;SDS011;10319;52.206;20.996;2022-09-20T03:03:17;19.27;;;8.00;;
20322;SDS011;10319;52.206;20.996;2022-09-20T03:08:49;19.67;;;8.70;;
20322;SDS011;10319;52.206;20.996;2022-09-20T03:14:01;20.63;;;8.90;;
20322;SDS011;10319;52.206;20.996;2022-09-20T03:19:20;19.90;;;8.23;;
20322;SDS011;10319;52.206;20.996;2022-09-20T03:21:51;18.20;;;8.57;;
20322;SDS011;10319;52.206;20.996;2022-09-20T03:24:27;16.77;;;7.53;;
20322;SDS011;10319;52.206;20.996;2022-09-20T03:27:04;18.00;;;8.07;;
20322;SDS011;10319;52.206;20.996;2022-09-20T03:43:01;17.17;;;6.83;;
20322;SDS011;10319;52.206;20.996;2022-09-20T03:48:29;15.63;;;5.90;;
20322;SDS011;10319;52.206;20.996;2022-09-20T04:04:06;15.00;;;6.60;;
20322;SDS011;10319;52.206;20.996;2022-09-20T04:14:45;16.13;;;6.40;;
20322;SDS011;10319;52.206;20.996;2022-09-20T04:19:51;15.47;;;6.13;;
20322;SDS011;10319;52.206;20.996;2022-09-20T04:22:20;15.77;;;5.77;;
20322;SDS011;10319;52.206;20.996;2022-09-20T04:24:56;15.13;;;5.80;;
20322;SDS011;10319;52.206;20.996;2022-09-20T04:27:28;14.83;;;6.03;;
20322;SDS011;10319;52.206;20.996;2022-09-20T04:37:47;14.47;;;5.40;;
20322;SDS011;10319;52.206;20.996;2022-09-20T04:40:24;14.87;;;6.07;;
20322;SDS011;10319;52.206;20.996;2022-09-20T04:48:42;15.93;;;5.77;;
20322;SDS011;10319;52.206;20.996;2022-09-20T04:54:22;13.97;;;5.20;;
20322;SDS011;10319;52.206;20.996;2022-09-20T04:59:06;15.23;;;5.97;;
20322;SDS011;10319;52.206;20.996;2022-09-20T05:11:44;14.90;;;5.97;;
20322;SDS011;10319;52.206;20.996;2022-09-20T05:14:24;14.77;;;6.00;;
20322;SDS011;10319;52.206;20.996;2022-09-20T05:30:05;15.10;;;5.20;;
20322;SDS011;10319;52.206;20.996;2022-09-20T05:43:09;13.83;;;4.87;;
20322;SDS011;10319;52.206;20.996;2022-09-20T05:55:42;14.30;;;5.23;;
20322;SDS011;10319;52.206;20.996;2022-09-20T06:00:43;13.20;;;5.00;;
20322;SDS011;10319;52.206;20.996;2022-09-20T06:03:16;16.00;;;5.40;;
20322;SDS011;10319;52.206;20.996;2022-09-20T06:08:29;14.67;;;5.20;;
20322;SDS011;10319;52.206;20.996;2022-09-20T06:11:02;15.40;;;5.70;;
20322;SDS011;10319;52.206;20.996;2022-09-20T06:13:44;15.13;;;5.63;;
20322;SDS011;10319;52.206;20.996;2022-09-20T06:16:58;15.97;;;6.20;;
20322;SDS011;10319;52.206;20.996;2022-09-20T06:19:05;16.23;;;6.57;;
20322;SDS011;10319;52.206;20.996;2022-09-20T06:21:54;17.57;;;6.43;;
20322;SDS011;10319;52.206;20.996;2022-09-20T06:24:34;18.30;;;6.67;;
20322;SDS011;10319;52.206;20.996;2022-09-20T06:27:03;16.57;;;6.37;;
20322;SDS011;10319;52.206;20.996;2022-09-20T06:29:29;15.60;;;6.20;;
20322;SDS011;10319;52.206;20.996;2022-09-20T06:31:55;15.70;;;5.57;;
20322;SDS011;10319;52.206;20.996;2022-09-20T06:34:21;16.00;;;6.33;;
20322;SDS011;10319;52.206;20.996;2022-09-20T06:36:49;17.53;;;6.60;;
20322;SDS011;10319;52.206;20.996;2022-09-20T06:39:48;16.37;;;7.00;;
20322;SDS011;10319;52.206;20.996;2022-09-20T06:42:36;17.77;;;6.57;;
20322;SDS011;10319;52.206;20.996;2022-09-20T06:45:02;16.83;;;6.43;;
20322;SDS011;10319;52.206;20.996;2022-09-20T06:47:27;14.53;;;6.27;;
20322;SDS011;10319;52.206;20.996;2022-09-20T06:49:53;17.10;;;6.53;;
20322;SDS011;10319;52.206;20.996;2022-09-20T06:52:19;16.97;;;6.50;;
20322;SDS011;10319;52.206;20.996;2022-09-20T06:54:45;15.33;;;5.33;;
20322;SDS011;10319;52.206;20.996;2022-09-20T06:57:11;18.10;;;6.83;;
20322;SDS011;10319;52.206;20.996;2022-09-20T06:59:39;19.37;;;7.37;;
20322;SDS011;10319;52.206;20.996;2022-09-20T07:02:04;17.37;;;6.83;;
20322;SDS011;10319;52.206;20.996;2022-09-20T07:04:29;16.23;;;6.43;;
20322;SDS011;10319;52.206;20.996;2022-09-20T07:06:58;16.40;;;6.33;;
20322;SDS011;10319;52.206;20.996;2022-09-20T07:09:24;16.10;;;6.67;;
20322;SDS011;10319;52.206;20.996;2022-09-20T07:11:49;15.73;;;6.33;;
20322;SDS011;10319;52.206;20.996;2022-09-20T07:14:14;16.87;;;6.80;;
20322;SDS011;10319;52.206;20.996;2022-09-20T07:16:40;15.73;;;6.37;;
20322;SDS011;10319;52.206;20.996;2022-09-20T07:19:05;16.70;;;6.17;;
20322;SDS011;10319;52.206;20.996;2022-09-20T07:21:31;15.60;;;6.43;;
20322;SDS011;10319;52.206;20.996;2022-09-20T07:23:56;16.50;;;7.37;;
20322;SDS011;10319;52.206;20.996;2022-09-20T07:26:25;16.13;;;6.73;;
20322;SDS011;10319;52.206;20.996;2022-09-20T07:28:52;15.80;;;6.67;;
20322;SDS011;10319;52.206;20.996;2022-09-20T07:31:18;15.63;;;6.80;;
20322;SDS011;10319;52.206;20.996;2022-09-20T07:33:43;16.63;;;6.53;;
20322;SDS011;10319;52.206;20.996;2022-09-20T07:36:09;16.40;;;6.37;;
20322;SDS011;10319;52.206;20.996;2022-09-20T07:38:36;15.63;;;6.70;;
20322;SDS011;10319;52.206;20.996;2022-09-20T07:41:01;14.87;;;5.73;;
20322;SDS011;10319;52.206;20.996;2022-09-20T07:43:27;15.77;;;6.37;;
20322;SDS011;10319;52.206;20.996;2022-09-20T07:45:52;15.53;;;6.07;;
20322;SDS011;10319;52.206;20.996;2022-09-20T07:48:19;16.50;;;6.20;;
20322;SDS011;10319;52.206;20.996;2022-09-20T07:50:51;13.63;;;5.57;;
20322;SDS011;10319;52.206;20.996;2022-09-20T07:53:18;15.27;;;6.50;;
20322;SDS011;10319;52.206;20.996;2022-09-20T07:55:43;16.13;;;6.57;;
20322;SDS011;10319;52.206;20.996;2022-09-20T07:58:08;14.97;;;6.07;;
20322;SDS011;10319;52.206;20.996;2022-09-20T08:00:33;14.33;;;5.57;;
20322;SDS011;10319;52.206;20.996;2022-09-20T08:02:58;16.33;;;6.83;;
20322;SDS011;10319;52.206;20.996;2022-09-20T08:05:24;14.20;;;5.50;;
20322;SDS011;10319;52.206;20.996;2022-09-20T08:07:49;14.80;;;5.67;;
20322;SDS011;10319;52.206;20.996;2022-09-20T08:10:15;16.57;;;6.17;;
20322;SDS011;10319;52.206;20.996;2022-09-20T08:12:40;14.37;;;5.97;;
20322;SDS011;10319;52.206;20.996;2022-09-20T08:15:05;15.50;;;6.03;;
20322;SDS011;10319;52.206;20.996;2022-09-20T08:17:31;16.17;;;6.10;;
20322;SDS011;10319;52.206;20.996;2022-09-20T08:19:56;15.17;;;6.70;;
20322;SDS011;10319;52.206;20.996;2022-09-20T08:22:21;14.30;;;6.00;;
20322;SDS011;10319;52.206;20.996;2022-09-20T08:24:47;16.77;;;6.87;;
20322;SDS011;10319;52.206;20.996;2022-09-20T08:27:12;14.80;;;6.03;;
20322;SDS011;10319;52.206;20.996;2022-09-20T08:29:37;14.50;;;6.13;;
20322;SDS011;10319;52.206;20.996;2022-09-20T08:32:02;15.83;;;6.23;;
20322;SDS011;10319;52.206;20.996;2022-09-20T08:34:28;15.30;;;6.40;;
20322;SDS011;10319;52.206;20.996;2022-09-20T08:36:53;15.43;;;5.63;;
20322;SDS011;10319;52.206;20.996;2022-09-20T08:39:20;14.90;;;6.03;;
20322;SDS011;10319;52.206;20.996;2022-09-20T08:46:49;15.83;;;6.40;;
20322;SDS011;10319;52.206;20.996;2022-09-20T08:49:25;15.70;;;6.70;;
20322;SDS011;10319;52.206;20.996;2022-09-20T08:51:51;14.77;;;6.47;;
20322;SDS011;10319;52.206;20.996;2022-09-20T08:54:17;14.63;;;5.90;;
20322;SDS011;10319;52.206;20.996;2022-09-20T08:56:42;14.07;;;5.33;;
20322;SDS011;10319;52.206;20.996;2022-09-20T08:59:13;15.00;;;6.07;;
20322;SDS011;10319;52.206;20.996;2022-09-20T09:01:38;13.13;;;5.33;;
20322;SDS011;10319;52.206;20.996;2022-09-20T09:06:29;14.85;;;6.00;;
20322;SDS011;10319;52.206;20.996;2022-09-20T09:08:54;16.70;;;6.73;;
20322;SDS011;10319;52.206;20.996;2022-09-20T09:11:21;16.20;;;7.33;;
20322;SDS011;10319;52.206;20.996;2022-09-20T09:14:03;17.37;;;7.57;;
20322;SDS011;10319;52.206;20.996;2022-09-20T09:16:32;15.80;;;6.87;;
20322;SDS011;10319;52.206;20.996;2022-09-20T09:18:57;16.70;;;7.77;;
20322;SDS011;10319;52.206;20.996;2022-09-20T09:21:42;15.77;;;7.37;;
20322;SDS011;10319;52.206;20.996;2022-09-20T09:24:17;15.87;;;7.50;;
20322;SDS011;10319;52.206;20.996;2022-09-20T09:26:44;16.13;;;7.27;;
20322;SDS011;10319;52.206;20.996;2022-09-20T09:29:23;15.23;;;7.23;;
20322;SDS011;10319;52.206;20.996;2022-09-20T09:31:49;15.50;;;6.67;;
20322;SDS011;10319;52.206;20.996;2022-09-20T09:34:35;15.50;;;6.80;;
20322;SDS011;10319;52.206;20.996;2022-09-20T09:37:02;14.27;;;6.70;;
20322;SDS011;10319;52.206;20.996;2022-09-20T09:39:32;16.37;;;7.13;;
20322;SDS011;10319;52.206;20.996;2022-09-20T09:41:58;15.37;;;7.00;;
20322;SDS011;10319;52.206;20.996;2022-09-20T09:46:52;14.73;;;6.33;;
20322;SDS011;10319;52.206;20.996;2022-09-20T09:49:19;14.37;;;6.40;;
20322;SDS011;10319;52.206;20.996;2022-09-20T09:54:32;16.33;;;6.90;;
20322;SDS011;10319;52.206;20.996;2022-09-20T09:57:03;15.23;;;7.00;;
20322;SDS011;10319;52.206;20.996;2022-09-20T10:07:37;16.20;;;7.30;;
20322;SDS011;10319;52.206;20.996;2022-09-20T10:10:07;15.70;;;7.50;;
20322;SDS011;10319;52.206;20.996;2022-09-20T10:13:20;15.60;;;6.83;;
20322;SDS011;10319;52.206;20.996;2022-09-20T10:15:29;13.70;;;6.23;;
20322;SDS011;10319;52.206;20.996;2022-09-20T10:23:24;13.83;;;5.77;;
20322;SDS011;10319;52.206;20.996;2022-09-20T10:25:49;13.30;;;5.90;;
20322;SDS011;10319;52.206;20.996;2022-09-20T10:31:06;13.73;;;5.63;;
20322;SDS011;10319;52.206;20.996;2022-09-20T10:33:35;13.23;;;5.50;;
20322;SDS011;10319;52.206;20.996;2022-09-20T10:38:32;14.63;;;6.27;;
20322;SDS011;10319;52.206;20.996;2022-09-20T10:46:32;13.87;;;5.93;;
20322;SDS011;10319;52.206;20.996;2022-09-20T10:54:09;14.20;;;6.40;;
20322;SDS011;10319;52.206;20.996;2022-09-20T10:56:41;13.60;;;5.40;;
20322;SDS011;10319;52.206;20.996;2022-09-20T11:04:19;12.70;;;5.30;;
20322;SDS011;10319;52.206;20.996;2022-09-20T11:09:18;13.43;;;5.40;;
20322;SDS011;10319;52.206;20.996;2022-09-20T11:11:45;13.33;;;5.37;;
20322;SDS011;10319;52.206;20.996;2022-09-20T11:14:17;14.00;;;5.57;;
20322;SDS011;10319;52.206;20.996;2022-09-20T11:16:49;12.63;;;4.60;;
20322;SDS011;10319;52.206;20.996;2022-09-20T11:21:44;12.23;;;4.60;;
20322;SDS011;10319;52.206;20.996;2022-09-20T11:26:43;10.23;;;3.60;;
20322;SDS011;10319;52.206;20.996;2022-09-20T11:31:38;10.43;;;3.30;;
20322;SDS011;10319;52.206;20.996;2022-09-20T11:39:27;9.37;;;3.00;;
20322;SDS011;10319;52.206;20.996;2022-09-20T11:41:53;10.43;;;3.40;;
20322;SDS011;10319;52.206;20.996;2022-09-20T11:44:19;8.47;;;3.00;;
20322;SDS011;10319;52.206;20.996;2022-09-20T11:46:56;8.30;;;2.80;;
20322;SDS011;10319;52.206;20.996;2022-09-20T11:56:50;9.20;;;2.80;;
20322;SDS011;10319;52.206;20.996;2022-09-20T12:01:47;9.40;;;2.80;;
20322;SDS011;10319;52.206;20.996;2022-09-20T12:04:19;8.23;;;2.50;;
20322;SDS011;10319;52.206;20.996;2022-09-20T12:06:54;6.47;;;2.13;;
20322;SDS011;10319;52.206;20.996;2022-09-20T12:09:30;6.20;;;2.20;;
20322;SDS011;10319;52.206;20.996;2022-09-20T12:11:57;7.27;;;2.20;;
20322;SDS011;10319;52.206;20.996;2022-09-20T12:16:49;5.70;;;1.80;;
20322;SDS011;10319;52.206;20.996;2022-09-20T12:22:30;8.77;;;2.43;;
20322;SDS011;10319;52.206;20.996;2022-09-20T12:24:35;6.60;;;2.20;;
20322;SDS011;10319;52.206;20.996;2022-09-20T12:27:01;5.87;;;2.10;;
20322;SDS011;10319;52.206;20.996;2022-09-20T12:31:59;7.10;;;2.20;;
20322;SDS011;10319;52.206;20.996;2022-09-20T12:37:35;6.70;;;2.10;;
20322;SDS011;10319;52.206;20.996;2022-09-20T12:39:36;5.40;;;1.87;;
20322;SDS011;10319;52.206;20.996;2022-09-20T12:44:37;5.00;;;1.80;;
20322;SDS011;10319;52.206;20.996;2022-09-20T12:47:13;4.50;;;1.83;;
20322;SDS011;10319;52.206;20.996;2022-09-20T12:57:57;6.70;;;2.17;;
20322;SDS011;10319;52.206;20.996;2022-09-20T13:05:42;5.20;;;1.90;;
20322;SDS011;10319;52.206;20.996;2022-09-20T13:08:19;6.90;;;2.07;;
20322;SDS011;10319;52.206;20.996;2022-09-20T13:10:50;6.05;;;2.00;;
20322;SDS011;10319;52.206;20.996;2022-09-20T13:13:38;5.60;;;1.88;;
20322;SDS011;10319;52.206;20.996;2022-09-20T13:16:05;4.47;;;1.63;;
20322;SDS011;10319;52.206;20.996;2022-09-20T13:18:31;4.97;;;1.67;;
20322;SDS011;10319;52.206;20.996;2022-09-20T13:20:58;4.97;;;1.60;;
20322;SDS011;10319;52.206;20.996;2022-09-20T13:23:30;5.30;;;1.63;;
20322;SDS011;10319;52.206;20.996;2022-09-20T13:25:56;5.40;;;1.88;;
20322;SDS011;10319;52.206;20.996;2022-09-20T13:28:55;5.05;;;1.70;;
20322;SDS011;10319;52.206;20.996;2022-09-20T13:31:23;7.90;;;1.60;;
20322;SDS011;10319;52.206;20.996;2022-09-20T13:33:48;4.93;;;1.67;;
20322;SDS011;10319;52.206;20.996;2022-09-20T13:36:14;4.17;;;1.60;;
20322;SDS011;10319;52.206;20.996;2022-09-20T13:38:43;7.17;;;1.60;;
20322;SDS011;10319;52.206;20.996;2022-09-20T13:41:09;3.67;;;1.40;;
20322;SDS011;10319;52.206;20.996;2022-09-20T13:43:41;6.17;;;1.70;;
20322;SDS011;10319;52.206;20.996;2022-09-20T13:48:32;7.20;;;2.10;;
20322;SDS011;10319;52.206;20.996;2022-09-20T13:50:58;4.80;;;1.73;;
20322;SDS011;10319;52.206;20.996;2022-09-20T13:53:24;5.17;;;1.80;;
20322;SDS011;10319;52.206;20.996;2022-09-20T13:55:50;5.50;;;1.80;;
20322;SDS011;10319;52.206;20.996;2022-09-20T13:58:16;7.63;;;2.03;;
20322;SDS011;10319;52.206;20.996;2022-09-20T14:00:44;6.53;;;2.07;;
20322;SDS011;10319;52.206;20.996;2022-09-20T14:03:11;5.63;;;1.80;;
20322;SDS011;10319;52.206;20.996;2022-09-20T14:05:43;5.70;;;1.60;;
20322;SDS011;10319;52.206;20.996;2022-09-20T14:08:10;4.27;;;1.57;;
20322;SDS011;10319;52.206;20.996;2022-09-20T14:10:37;6.07;;;1.80;;
20322;SDS011;10319;52.206;20.996;2022-09-20T14:13:07;4.60;;;1.50;;
20322;SDS011;10319;52.206;20.996;2022-09-20T14:15:37;4.80;;;1.40;;
20322;SDS011;10319;52.206;20.996;2022-09-20T14:18:03;3.60;;;1.40;;
20322;SDS011;10319;52.206;20.996;2022-09-20T14:20:30;4.80;;;1.33;;
20322;SDS011;10319;52.206;20.996;2022-09-20T14:22:56;4.27;;;1.50;;
20322;SDS011;10319;52.206;20.996;2022-09-20T14:25:22;3.50;;;1.40;;
20322;SDS011;10319;52.206;20.996;2022-09-20T14:28:02;4.67;;;1.40;;
20322;SDS011;10319;52.206;20.996;2022-09-20T14:30:37;6.37;;;1.50;;
20322;SDS011;10319;52.206;20.996;2022-09-20T14:33:02;5.67;;;1.67;;
20322;SDS011;10319;52.206;20.996;2022-09-20T14:35:29;4.00;;;1.33;;
20322;SDS011;10319;52.206;20.996;2022-09-20T14:38:15;4.27;;;1.40;;
20322;SDS011;10319;52.206;20.996;2022-09-20T14:40:44;7.30;;;1.67;;
20322;SDS011;10319;52.206;20.996;2022-09-20T14:43:21;5.47;;;1.60;;
20322;SDS011;10319;52.206;20.996;2022-09-20T14:45:54;5.57;;;1.50;;
20322;SDS011;10319;52.206;20.996;2022-09-20T14:51:07;5.83;;;1.87;;
20322;SDS011;10319;52.206;20.996;2022-09-20T14:53:31;7.37;;;1.90;;
20322;SDS011;10319;52.206;20.996;2022-09-20T14:58:32;6.57;;;1.77;;
20322;SDS011;10319;52.206;20.996;2022-09-20T15:01:02;7.37;;;1.87;;
20322;SDS011;10319;52.206;20.996;2022-09-20T15:03:33;8.00;;;1.90;;
20322;SDS011;10319;52.206;20.996;2022-09-20T15:06:00;3.80;;;1.43;;
20322;SDS011;10319;52.206;20.996;2022-09-20T15:08:26;6.23;;;1.90;;
20322;SDS011;10319;52.206;20.996;2022-09-20T15:10:51;5.90;;;2.00;;
20322;SDS011;10319;52.206;20.996;2022-09-20T15:13:16;6.80;;;2.03;;
20322;SDS011;10319;52.206;20.996;2022-09-20T15:15:48;6.93;;;1.90;;
20322;SDS011;10319;52.206;20.996;2022-09-20T15:18:23;5.93;;;1.50;;
20322;SDS011;10319;52.206;20.996;2022-09-20T15:20:50;3.93;;;1.40;;
20322;SDS011;10319;52.206;20.996;2022-09-20T15:23:16;5.30;;;1.40;;
20322;SDS011;10319;52.206;20.996;2022-09-20T15:25:41;4.43;;;1.40;;
20322;SDS011;10319;52.206;20.996;2022-09-20T15:28:09;5.37;;;1.40;;
20322;SDS011;10319;52.206;20.996;2022-09-20T15:30:34;3.63;;;1.30;;
20322;SDS011;10319;52.206;20.996;2022-09-20T15:33:00;4.23;;;1.27;;
20322;SDS011;10319;52.206;20.996;2022-09-20T15:35:25;4.90;;;1.40;;
20322;SDS011;10319;52.206;20.996;2022-09-20T15:37:50;3.37;;;1.07;;
20322;SDS011;10319;52.206;20.996;2022-09-20T15:40:15;3.57;;;1.13;;
20322;SDS011;10319;52.206;20.996;2022-09-20T15:42:41;3.57;;;1.17;;
20322;SDS011;10319;52.206;20.996;2022-09-20T15:45:07;3.63;;;0.80;;
20322;SDS011;10319;52.206;20.996;2022-09-20T15:47:37;5.33;;;1.10;;
20322;SDS011;10319;52.206;20.996;2022-09-20T15:50:03;3.53;;;0.90;;
20322;SDS011;10319;52.206;20.996;2022-09-20T15:52:32;3.07;;;0.83;;
20322;SDS011;10319;52.206;20.996;2022-09-20T15:54:58;3.10;;;0.90;;
20322;SDS011;10319;52.206;20.996;2022-09-20T15:57:24;2.37;;;0.90;;
20322;SDS011;10319;52.206;20.996;2022-09-20T15:59:50;2.53;;;0.80;;
20322;SDS011;10319;52.206;20.996;2022-09-20T16:02:16;2.00;;;0.80;;
20322;SDS011;10319;52.206;20.996;2022-09-20T16:04:41;2.83;;;0.60;;
20322;SDS011;10319;52.206;20.996;2022-09-20T16:07:06;3.80;;;0.77;;
20322;SDS011;10319;52.206;20.996;2022-09-20T16:09:33;2.10;;;0.73;;
20322;SDS011;10319;52.206;20.996;2022-09-20T16:12:00;3.10;;;0.80;;
20322;SDS011;10319;52.206;20.996;2022-09-20T16:14:26;3.23;;;0.90;;
20322;SDS011;10319;52.206;20.996;2022-09-20T16:16:51;3.90;;;0.80;;
20322;SDS011;10319;52.206;20.996;2022-09-20T16:19:17;2.90;;;0.80;;
20322;SDS011;10319;52.206;20.996;2022-09-20T16:21:47;3.03;;;0.70;;
20322;SDS011;10319;52.206;20.996;2022-09-20T16:24:14;1.40;;;0.50;;
20322;SDS011;10319;52.206;20.996;2022-09-20T16:26:40;2.60;;;0.60;;
20322;SDS011;10319;52.206;20.996;2022-09-20T16:29:05;3.80;;;0.70;;
20322;SDS011;10319;52.206;20.996;2022-09-20T16:31:37;2.87;;;0.70;;
20322;SDS011;10319;52.206;20.996;2022-09-20T16:36:31;2.97;;;0.80;;
20322;SDS011;10319;52.206;20.996;2022-09-20T16:38:57;3.97;;;0.93;;
20322;SDS011;10319;52.206;20.996;2022-09-20T16:41:23;1.80;;;0.50;;
20322;SDS011;10319;52.206;20.996;2022-09-20T16:43:48;2.30;;;0.70;;
20322;SDS011;10319;52.206;20.996;2022-09-20T16:46:16;1.67;;;0.67;;
20322;SDS011;10319;52.206;20.996;2022-09-20T16:48:43;4.87;;;1.07;;
20322;SDS011;10319;52.206;20.996;2022-09-20T16:51:11;2.67;;;0.70;;
20322;SDS011;10319;52.206;20.996;2022-09-20T16:53:36;1.93;;;0.73;;
20322;SDS011;10319;52.206;20.996;2022-09-20T16:56:01;3.57;;;0.70;;
20322;SDS011;10319;52.206;20.996;2022-09-20T16:58:31;4.10;;;0.90;;
20322;SDS011;10319;52.206;20.996;2022-09-20T17:01:04;8.00;;;1.43;;
20322;SDS011;10319;52.206;20.996;2022-09-20T17:03:29;2.07;;;0.83;;
20322;SDS011;10319;52.206;20.996;2022-09-20T17:06:01;3.63;;;0.90;;
20322;SDS011;10319;52.206;20.996;2022-09-20T17:08:27;2.63;;;0.90;;
20322;SDS011;10319;52.206;20.996;2022-09-20T17:10:56;4.30;;;0.87;;
20322;SDS011;10319;52.206;20.996;2022-09-20T17:13:21;2.07;;;0.77;;
20322;SDS011;10319;52.206;20.996;2022-09-20T17:15:57;5.87;;;1.00;;
20322;SDS011;10319;52.206;20.996;2022-09-20T17:18:23;4.80;;;0.90;;
20322;SDS011;10319;52.206;20.996;2022-09-20T17:20:48;4.43;;;1.00;;
20322;SDS011;10319;52.206;20.996;2022-09-20T17:23:13;3.53;;;1.13;;
20322;SDS011;10319;52.206;20.996;2022-09-20T17:25:39;4.07;;;1.30;;
20322;SDS011;10319;52.206;20.996;2022-09-20T17:28:06;3.77;;;1.30;;
20322;SDS011;10319;52.206;20.996;2022-09-20T17:30:32;5.83;;;1.23;;
20322;SDS011;10319;52.206;20.996;2022-09-20T17:32:57;5.00;;;1.40;;
20322;SDS011;10319;52.206;20.996;2022-09-20T17:35:22;5.20;;;1.30;;
20322;SDS011;10319;52.206;20.996;2022-09-20T17:37:47;5.67;;;1.30;;
20322;SDS011;10319;52.206;20.996;2022-09-20T17:40:12;2.37;;;0.93;;
20322;SDS011;10319;52.206;20.996;2022-09-20T17:42:37;6.27;;;1.43;;
20322;SDS011;10319;52.206;20.996;2022-09-20T17:45:03;6.50;;;1.70;;
20322;SDS011;10319;52.206;20.996;2022-09-20T17:47:28;5.93;;;1.50;;
20322;SDS011;10319;52.206;20.996;2022-09-20T17:49:53;4.70;;;1.30;;
20322;SDS011;10319;52.206;20.996;2022-09-20T17:52:19;7.13;;;1.60;;
20322;SDS011;10319;52.206;20.996;2022-09-20T17:54:44;4.53;;;1.30;;
20322;SDS011;10319;52.206;20.996;2022-09-20T17:57:09;5.33;;;1.50;;
20322;SDS011;10319;52.206;20.996;2022-09-20T17:59:34;4.70;;;1.30;;
20322;SDS011;10319;52.206;20.996;2022-09-20T18:02:00;5.53;;;1.20;;
20322;SDS011;10319;52.206;20.996;2022-09-20T18:04:25;4.23;;;1.23;;
20322;SDS011;10319;52.206;20.996;2022-09-20T18:06:51;6.00;;;1.33;;
20322;SDS011;10319;52.206;20.996;2022-09-20T18:09:17;6.60;;;1.40;;
20322;SDS011;10319;52.206;20.996;2022-09-20T18:11:44;4.33;;;1.27;;
20322;SDS011;10319;52.206;20.996;2022-09-20T18:14:10;8.70;;;1.77;;
20322;SDS011;10319;52.206;20.996;2022-09-20T18:16:36;5.03;;;1.50;;
20322;SDS011;10319;52.206;20.996;2022-09-20T18:19:03;7.33;;;1.60;;
20322;SDS011;10319;52.206;20.996;2022-09-20T18:21:30;5.73;;;1.60;;
20322;SDS011;10319;52.206;20.996;2022-09-20T18:23:55;7.13;;;1.77;;
20322;SDS011;10319;52.206;20.996;2022-09-20T18:26:25;9.20;;;2.00;;
20322;SDS011;10319;52.206;20.996;2022-09-20T18:31:23;9.03;;;2.10;;
20322;SDS011;10319;52.206;20.996;2022-09-20T18:33:52;8.47;;;2.13;;
20322;SDS011;10319;52.206;20.996;2022-09-20T18:36:18;10.23;;;2.20;;
20322;SDS011;10319;52.206;20.996;2022-09-20T18:38:43;10.23;;;2.70;;
20322;SDS011;10319;52.206;20.996;2022-09-20T18:41:10;12.03;;;3.10;;
20322;SDS011;10319;52.206;20.996;2022-09-20T18:43:36;11.77;;;3.37;;
20322;SDS011;10319;52.206;20.996;2022-09-20T18:46:02;10.70;;;2.80;;
20322;SDS011;10319;52.206;20.996;2022-09-20T18:48:30;10.57;;;2.80;;
20322;SDS011;10319;52.206;20.996;2022-09-20T18:50:57;11.40;;;3.30;;
20322;SDS011;10319;52.206;20.996;2022-09-20T18:53:29;12.30;;;3.83;;
20322;SDS011;10319;52.206;20.996;2022-09-20T18:55:55;12.67;;;3.87;;
20322;SDS011;10319;52.206;20.996;2022-09-20T18:58:21;12.43;;;3.57;;
20322;SDS011;10319;52.206;20.996;2022-09-20T19:00:48;11.73;;;3.17;;
20322;SDS011;10319;52.206;20.996;2022-09-20T19:03:18;12.57;;;3.60;;
20322;SDS011;10319;52.206;20.996;2022-09-20T19:05:47;13.60;;;3.90;;
20322;SDS011;10319;52.206;20.996;2022-09-20T19:08:18;13.30;;;4.07;;
20322;SDS011;10319;52.206;20.996;2022-09-20T19:10:52;14.47;;;4.30;;
20322;SDS011;10319;52.206;20.996;2022-09-20T19:13:25;12.67;;;3.73;;
20322;SDS011;10319;52.206;20.996;2022-09-20T19:18:32;12.97;;;3.60;;
20322;SDS011;10319;52.206;20.996;2022-09-20T19:23:37;11.90;;;3.27;;
20322;SDS011;10319;52.206;20.996;2022-09-20T19:26:18;13.27;;;3.80;;
20322;SDS011;10319;52.206;20.996;2022-09-20T19:28:44;13.13;;;3.33;;